sensor_id;sensor_type;location;lat;lon;timestamp;P1;durP1;ratioP1;P2;durP2;ratioP2
60426;SDS011;46274;47.168;27.604;2023-08-07T00:00:07;6.70;;;3.25;;
60426;SDS011;46274;47.168;27.604;2023-08-07T00:06:16;8.30;;;3.10;;
60426;SDS011;46274;47.168;27.604;2023-08-07T00:12:20;6.30;;;2.50;;
60426;SDS011;46274;47.168;27.604;2023-08-07T00:18:23;6.90;;;2.93;;
60426;SDS011;46274;47.168;27.604;2023-08-07T00:24:26;5.03;;;2.90;;
60426;SDS011;46274;47.168;27.604;2023-08-07T00:30:28;8.95;;;3.22;;
60426;SDS011;46274;47.168;27.604;2023-08-07T00:36:38;5.30;;;2.78;;
60426;SDS011;46274;47.168;27.604;2023-08-07T00:42:41;5.05;;;2.60;;
60426;SDS011;46274;47.168;27.604;2023-08-07T00:48:44;5.38;;;3.28;;
60426;SDS011;46274;47.168;27.604;2023-08-07T00:54:47;4.40;;;2.72;;
60426;SDS011;46274;47.168;27.604;2023-08-07T01:00:50;4.45;;;3.33;;
60426;SDS011;46274;47.168;27.604;2023-08-07T01:06:56;3.90;;;2.47;;
60426;SDS011;46274;47.168;27.604;2023-08-07T01:13:10;4.18;;;2.80;;
60426;SDS011;46274;47.168;27.604;2023-08-07T01:19:23;3.45;;;2.35;;
60426;SDS011;46274;47.168;27.604;2023-08-07T01:25:29;4.30;;;2.92;;
60426;SDS011;46274;47.168;27.604;2023-08-07T01:31:33;7.07;;;3.25;;
60426;SDS011;46274;47.168;27.604;2023-08-07T01:37:39;6.57;;;3.88;;
60426;SDS011;46274;47.168;27.604;2023-08-07T01:43:45;5.90;;;3.55;;
60426;SDS011;46274;47.168;27.604;2023-08-07T01:49:48;6.80;;;4.93;;
60426;SDS011;46274;47.168;27.604;2023-08-07T01:56:04;9.38;;;5.28;;
60426;SDS011;46274;47.168;27.604;2023-08-07T02:02:07;5.95;;;4.30;;
60426;SDS011;46274;47.168;27.604;2023-08-07T02:08:10;5.72;;;3.97;;
60426;SDS011;46274;47.168;27.604;2023-08-07T02:14:14;7.32;;;4.90;;
60426;SDS011;46274;47.168;27.604;2023-08-07T02:20:16;8.75;;;5.78;;
60426;SDS011;46274;47.168;27.604;2023-08-07T02:26:19;11.13;;;4.60;;
60426;SDS011;46274;47.168;27.604;2023-08-07T02:32:24;8.35;;;5.10;;
60426;SDS011;46274;47.168;27.604;2023-08-07T02:38:27;8.83;;;5.10;;
60426;SDS011;46274;47.168;27.604;2023-08-07T02:44:35;7.47;;;5.40;;
60426;SDS011;46274;47.168;27.604;2023-08-07T02:50:40;8.87;;;6.20;;
60426;SDS011;46274;47.168;27.604;2023-08-07T02:56:43;12.82;;;6.20;;
60426;SDS011;46274;47.168;27.604;2023-08-07T03:02:45;11.67;;;5.60;;
60426;SDS011;46274;47.168;27.604;2023-08-07T03:08:48;10.27;;;5.00;;
60426;SDS011;46274;47.168;27.604;2023-08-07T03:14:54;7.37;;;5.10;;
60426;SDS011;46274;47.168;27.604;2023-08-07T03:21:00;7.53;;;5.20;;
60426;SDS011;46274;47.168;27.604;2023-08-07T03:27:09;9.32;;;5.43;;
60426;SDS011;46274;47.168;27.604;2023-08-07T03:33:14;10.48;;;5.90;;
60426;SDS011;46274;47.168;27.604;2023-08-07T03:39:27;8.20;;;5.03;;
60426;SDS011;46274;47.168;27.604;2023-08-07T03:45:35;8.80;;;4.28;;
60426;SDS011;46274;47.168;27.604;2023-08-07T03:51:43;8.55;;;4.95;;
60426;SDS011;46274;47.168;27.604;2023-08-07T03:57:48;7.67;;;4.53;;
60426;SDS011;46274;47.168;27.604;2023-08-07T04:03:50;9.57;;;5.10;;
60426;SDS011;46274;47.168;27.604;2023-08-07T04:09:58;9.18;;;4.05;;
60426;SDS011;46274;47.168;27.604;2023-08-07T04:16:01;4.80;;;3.55;;
60426;SDS011;46274;47.168;27.604;2023-08-07T04:22:06;5.00;;;3.13;;
60426;SDS011;46274;47.168;27.604;2023-08-07T04:28:11;3.97;;;2.10;;
60426;SDS011;46274;47.168;27.604;2023-08-07T04:34:14;3.37;;;2.00;;
60426;SDS011;46274;47.168;27.604;2023-08-07T04:40:17;2.60;;;2.07;;
60426;SDS011;46274;47.168;27.604;2023-08-07T04:46:19;2.60;;;1.70;;
60426;SDS011;46274;47.168;27.604;2023-08-07T04:52:22;1.90;;;1.40;;
60426;SDS011;46274;47.168;27.604;2023-08-07T04:58:30;4.33;;;1.83;;
60426;SDS011;46274;47.168;27.604;2023-08-07T05:04:35;6.63;;;1.60;;
60426;SDS011;46274;47.168;27.604;2023-08-07T05:10:40;4.10;;;1.73;;
60426;SDS011;46274;47.168;27.604;2023-08-07T05:16:42;6.03;;;1.80;;
60426;SDS011;46274;47.168;27.604;2023-08-07T05:22:53;2.30;;;1.80;;
60426;SDS011;46274;47.168;27.604;2023-08-07T05:29:12;7.00;;;4.67;;
60426;SDS011;46274;47.168;27.604;2023-08-07T05:35:15;10.53;;;6.13;;
60426;SDS011;46274;47.168;27.604;2023-08-07T05:41:18;5.37;;;2.93;;
60426;SDS011;46274;47.168;27.604;2023-08-07T05:47:23;3.70;;;1.90;;
60426;SDS011;46274;47.168;27.604;2023-08-07T05:53:31;2.87;;;1.60;;
60426;SDS011;46274;47.168;27.604;2023-08-07T05:59:36;4.33;;;1.53;;
60426;SDS011;46274;47.168;27.604;2023-08-07T06:05:39;2.80;;;1.63;;
60426;SDS011;46274;47.168;27.604;2023-08-07T06:11:41;5.03;;;1.90;;
60426;SDS011;46274;47.168;27.604;2023-08-07T06:17:56;4.93;;;3.20;;
60426;SDS011;46274;47.168;27.604;2023-08-07T06:24:02;9.07;;;3.80;;
60426;SDS011;46274;47.168;27.604;2023-08-07T06:30:11;17.05;;;3.40;;
60426;SDS011;46274;47.168;27.604;2023-08-07T06:36:15;14.57;;;3.70;;
60426;SDS011;46274;47.168;27.604;2023-08-07T06:42:17;9.70;;;3.20;;
60426;SDS011;46274;47.168;27.604;2023-08-07T06:48:20;9.10;;;2.80;;
60426;SDS011;46274;47.168;27.604;2023-08-07T06:54:25;6.90;;;2.67;;
60426;SDS011;46274;47.168;27.604;2023-08-07T07:00:30;11.18;;;2.55;;
60426;SDS011;46274;47.168;27.604;2023-08-07T07:06:40;8.98;;;2.47;;
60426;SDS011;46274;47.168;27.604;2023-08-07T07:12:54;4.03;;;1.60;;
60426;SDS011;46274;47.168;27.604;2023-08-07T07:18:59;2.10;;;1.50;;
60426;SDS011;46274;47.168;27.604;2023-08-07T07:25:13;4.28;;;1.63;;
60426;SDS011;46274;47.168;27.604;2023-08-07T07:31:18;9.15;;;1.85;;
60426;SDS011;46274;47.168;27.604;2023-08-07T07:37:21;2.80;;;1.70;;
60426;SDS011;46274;47.168;27.604;2023-08-07T07:43:27;3.47;;;1.92;;
60426;SDS011;46274;47.168;27.604;2023-08-07T07:49:30;3.40;;;1.20;;
60426;SDS011;46274;47.168;27.604;2023-08-07T07:55:46;3.03;;;1.27;;
60426;SDS011;46274;47.168;27.604;2023-08-07T08:01:50;3.83;;;1.10;;
60426;SDS011;46274;47.168;27.604;2023-08-07T08:07:53;2.40;;;1.00;;
60426;SDS011;46274;47.168;27.604;2023-08-07T08:14:02;4.93;;;1.23;;
60426;SDS011;46274;47.168;27.604;2023-08-07T08:20:06;2.80;;;1.02;;
60426;SDS011;46274;47.168;27.604;2023-08-07T08:26:10;1.30;;;0.90;;
60426;SDS011;46274;47.168;27.604;2023-08-07T08:32:14;1.83;;;1.02;;
60426;SDS011;46274;47.168;27.604;2023-08-07T08:38:17;2.47;;;1.00;;
60426;SDS011;46274;47.168;27.604;2023-08-07T08:44:29;1.40;;;0.85;;
60426;SDS011;46274;47.168;27.604;2023-08-07T08:50:36;1.70;;;0.70;;
60426;SDS011;46274;47.168;27.604;2023-08-07T08:56:45;1.02;;;0.77;;
60426;SDS011;46274;47.168;27.604;2023-08-07T09:02:53;1.92;;;0.85;;
60426;SDS011;46274;47.168;27.604;2023-08-07T09:09:05;1.83;;;0.60;;
60426;SDS011;46274;47.168;27.604;2023-08-07T09:15:10;0.77;;;0.68;;
60426;SDS011;46274;47.168;27.604;2023-08-07T09:21:18;1.15;;;0.70;;
60426;SDS011;46274;47.168;27.604;2023-08-07T09:27:23;1.95;;;0.60;;
60426;SDS011;46274;47.168;27.604;2023-08-07T09:33:30;2.35;;;0.73;;
60426;SDS011;46274;47.168;27.604;2023-08-07T09:39:32;0.80;;;0.50;;
60426;SDS011;46274;47.168;27.604;2023-08-07T09:45:40;1.48;;;0.70;;
60426;SDS011;46274;47.168;27.604;2023-08-07T09:51:43;4.68;;;0.70;;
60426;SDS011;46274;47.168;27.604;2023-08-07T09:57:56;1.10;;;0.50;;
60426;SDS011;46274;47.168;27.604;2023-08-07T10:04:05;3.70;;;0.80;;
60426;SDS011;46274;47.168;27.604;2023-08-07T10:10:15;12.95;;;0.75;;
60426;SDS011;46274;47.168;27.604;2023-08-07T10:16:24;1.02;;;0.73;;
60426;SDS011;46274;47.168;27.604;2023-08-07T10:22:42;1.42;;;0.70;;
60426;SDS011;46274;47.168;27.604;2023-08-07T10:28:46;1.85;;;0.70;;
60426;SDS011;46274;47.168;27.604;2023-08-07T10:34:57;1.52;;;0.52;;
60426;SDS011;46274;47.168;27.604;2023-08-07T10:41:06;0.40;;;0.40;;
60426;SDS011;46274;47.168;27.604;2023-08-07T10:47:17;0.93;;;0.63;;
60426;SDS011;46274;47.168;27.604;2023-08-07T10:53:36;1.33;;;0.73;;
60426;SDS011;46274;47.168;27.604;2023-08-07T10:59:51;0.75;;;0.50;;
60426;SDS011;46274;47.168;27.604;2023-08-07T11:06:09;0.85;;;0.73;;
60426;SDS011;46274;47.168;27.604;2023-08-07T11:12:12;0.95;;;0.40;;
60426;SDS011;46274;47.168;27.604;2023-08-07T11:18:19;0.30;;;0.30;;
60426;SDS011;46274;47.168;27.604;2023-08-07T11:24:26;0.77;;;0.40;;
60426;SDS011;46274;47.168;27.604;2023-08-07T11:30:29;0.20;;;0.20;;
60426;SDS011;46274;47.168;27.604;2023-08-07T11:36:41;1.23;;;0.40;;
60426;SDS011;46274;47.168;27.604;2023-08-07T11:42:46;1.13;;;0.40;;
60426;SDS011;46274;47.168;27.604;2023-08-07T11:48:53;1.27;;;0.30;;
60426;SDS011;46274;47.168;27.604;2023-08-07T11:54:58;0.25;;;0.20;;
60426;SDS011;46274;47.168;27.604;2023-08-07T12:07:24;0.60;;;0.38;;
60426;SDS011;46274;47.168;27.604;2023-08-07T12:13:33;0.30;;;0.30;;
60426;SDS011;46274;47.168;27.604;2023-08-07T12:19:49;0.95;;;0.20;;
60426;SDS011;46274;47.168;27.604;2023-08-07T12:25:52;0.70;;;0.30;;
60426;SDS011;46274;47.168;27.604;2023-08-07T12:31:54;0.50;;;0.38;;
60426;SDS011;46274;47.168;27.604;2023-08-07T12:37:59;1.58;;;0.40;;
60426;SDS011;46274;47.168;27.604;2023-08-07T12:44:14;0.35;;;0.20;;
60426;SDS011;46274;47.168;27.604;2023-08-07T12:50:17;5.03;;;0.50;;
60426;SDS011;46274;47.168;27.604;2023-08-07T12:56:19;2.28;;;0.50;;
60426;SDS011;46274;47.168;27.604;2023-08-07T13:02:27;0.20;;;0.20;;
60426;SDS011;46274;47.168;27.604;2023-08-07T13:08:29;2.33;;;0.38;;
60426;SDS011;46274;47.168;27.604;2023-08-07T13:14:35;0.63;;;0.30;;
60426;SDS011;46274;47.168;27.604;2023-08-07T13:20:49;0.93;;;0.30;;
60426;SDS011;46274;47.168;27.604;2023-08-07T13:26:54;0.75;;;0.40;;
60426;SDS011;46274;47.168;27.604;2023-08-07T13:32:59;0.28;;;0.28;;
60426;SDS011;46274;47.168;27.604;2023-08-07T13:39:04;6.75;;;0.60;;
60426;SDS011;46274;47.168;27.604;2023-08-07T13:45:10;2.28;;;0.80;;
60426;SDS011;46274;47.168;27.604;2023-08-07T13:51:15;2.33;;;0.60;;
60426;SDS011;46274;47.168;27.604;2023-08-07T13:57:18;1.17;;;0.60;;
60426;SDS011;46274;47.168;27.604;2023-08-07T14:03:20;1.65;;;0.77;;
60426;SDS011;46274;47.168;27.604;2023-08-07T14:09:23;0.95;;;0.60;;
60426;SDS011;46274;47.168;27.604;2023-08-07T14:15:27;1.08;;;0.60;;
60426;SDS011;46274;47.168;27.604;2023-08-07T14:21:32;2.95;;;0.80;;
60426;SDS011;46274;47.168;27.604;2023-08-07T14:27:41;2.95;;;0.70;;
60426;SDS011;46274;47.168;27.604;2023-08-07T14:33:46;3.75;;;0.90;;
60426;SDS011;46274;47.168;27.604;2023-08-07T14:40:11;1.77;;;0.70;;
60426;SDS011;46274;47.168;27.604;2023-08-07T14:46:20;1.45;;;0.45;;
60426;SDS011;46274;47.168;27.604;2023-08-07T14:52:22;0.88;;;0.50;;
60426;SDS011;46274;47.168;27.604;2023-08-07T14:58:27;1.05;;;0.60;;
60426;SDS011;46274;47.168;27.604;2023-08-07T15:04:35;1.13;;;0.73;;
60426;SDS011;46274;47.168;27.604;2023-08-07T15:10:42;1.45;;;0.80;;
60426;SDS011;46274;47.168;27.604;2023-08-07T15:16:45;0.50;;;0.30;;
60426;SDS011;46274;47.168;27.604;2023-08-07T15:22:50;1.35;;;0.40;;
60426;SDS011;46274;47.168;27.604;2023-08-07T15:28:54;1.98;;;0.60;;
60426;SDS011;46274;47.168;27.604;2023-08-07T15:35:06;0.80;;;0.45;;
60426;SDS011;46274;47.168;27.604;2023-08-07T15:41:18;1.52;;;0.90;;
60426;SDS011;46274;47.168;27.604;2023-08-07T15:47:38;2.30;;;0.50;;
60426;SDS011;46274;47.168;27.604;2023-08-07T15:53:43;0.63;;;0.40;;
60426;SDS011;46274;47.168;27.604;2023-08-07T15:59:48;0.40;;;0.40;;
60426;SDS011;46274;47.168;27.604;2023-08-07T16:05:53;2.35;;;0.70;;
60426;SDS011;46274;47.168;27.604;2023-08-07T16:11:55;2.30;;;0.60;;
60426;SDS011;46274;47.168;27.604;2023-08-07T16:18:00;1.25;;;0.60;;
60426;SDS011;46274;47.168;27.604;2023-08-07T16:24:11;0.80;;;0.60;;
60426;SDS011;46274;47.168;27.604;2023-08-07T16:30:15;1.50;;;0.45;;
60426;SDS011;46274;47.168;27.604;2023-08-07T16:36:25;0.82;;;0.52;;
60426;SDS011;46274;47.168;27.604;2023-08-07T16:42:28;0.80;;;0.50;;
60426;SDS011;46274;47.168;27.604;2023-08-07T16:48:32;2.00;;;1.08;;
60426;SDS011;46274;47.168;27.604;2023-08-07T16:54:35;2.55;;;0.55;;
60426;SDS011;46274;47.168;27.604;2023-08-07T17:00:38;0.70;;;0.40;;
60426;SDS011;46274;47.168;27.604;2023-08-07T17:06:44;0.98;;;0.55;;
60426;SDS011;46274;47.168;27.604;2023-08-07T17:12:54;2.85;;;0.73;;
60426;SDS011;46274;47.168;27.604;2023-08-07T17:19:04;1.70;;;0.65;;
60426;SDS011;46274;47.168;27.604;2023-08-07T17:25:06;1.02;;;0.70;;
60426;SDS011;46274;47.168;27.604;2023-08-07T17:31:09;0.52;;;0.40;;
60426;SDS011;46274;47.168;27.604;2023-08-07T17:37:20;1.00;;;0.50;;
60426;SDS011;46274;47.168;27.604;2023-08-07T17:43:23;3.08;;;0.80;;
60426;SDS011;46274;47.168;27.604;2023-08-07T17:49:25;0.85;;;0.47;;
60426;SDS011;46274;47.168;27.604;2023-08-07T17:55:27;5.50;;;1.63;;
60426;SDS011;46274;47.168;27.604;2023-08-07T18:01:36;6.75;;;2.55;;
60426;SDS011;46274;47.168;27.604;2023-08-07T18:07:49;5.30;;;2.50;;
60426;SDS011;46274;47.168;27.604;2023-08-07T18:13:52;6.28;;;2.20;;
60426;SDS011;46274;47.168;27.604;2023-08-07T18:19:56;5.85;;;1.77;;
60426;SDS011;46274;47.168;27.604;2023-08-07T18:25:59;4.97;;;1.83;;
60426;SDS011;46274;47.168;27.604;2023-08-07T18:32:03;7.60;;;2.17;;
60426;SDS011;46274;47.168;27.604;2023-08-07T18:38:15;4.35;;;1.90;;
60426;SDS011;46274;47.168;27.604;2023-08-07T18:44:17;7.95;;;2.38;;
60426;SDS011;46274;47.168;27.604;2023-08-07T18:50:26;6.45;;;2.00;;
60426;SDS011;46274;47.168;27.604;2023-08-07T18:56:31;5.68;;;1.98;;
60426;SDS011;46274;47.168;27.604;2023-08-07T19:02:34;4.00;;;1.63;;
60426;SDS011;46274;47.168;27.604;2023-08-07T19:08:38;3.58;;;2.00;;
60426;SDS011;46274;47.168;27.604;2023-08-07T19:14:48;3.97;;;1.45;;
60426;SDS011;46274;47.168;27.604;2023-08-07T19:21:03;4.80;;;0.95;;
60426;SDS011;46274;47.168;27.604;2023-08-07T19:27:06;1.70;;;0.90;;
60426;SDS011;46274;47.168;27.604;2023-08-07T19:33:11;1.95;;;1.00;;
60426;SDS011;46274;47.168;27.604;2023-08-07T19:39:15;3.37;;;1.10;;
60426;SDS011;46274;47.168;27.604;2023-08-07T19:45:17;3.10;;;1.43;;
60426;SDS011;46274;47.168;27.604;2023-08-07T19:51:32;2.23;;;1.30;;
60426;SDS011;46274;47.168;27.604;2023-08-07T19:57:41;5.57;;;1.40;;
60426;SDS011;46274;47.168;27.604;2023-08-07T20:03:52;2.50;;;1.30;;
60426;SDS011;46274;47.168;27.604;2023-08-07T20:10:04;4.63;;;1.10;;
60426;SDS011;46274;47.168;27.604;2023-08-07T20:16:12;5.13;;;1.00;;
60426;SDS011;46274;47.168;27.604;2023-08-07T20:22:17;1.40;;;0.83;;
60426;SDS011;46274;47.168;27.604;2023-08-07T20:28:27;3.43;;;1.47;;
60426;SDS011;46274;47.168;27.604;2023-08-07T20:34:32;1.63;;;0.80;;
60426;SDS011;46274;47.168;27.604;2023-08-07T20:40:36;8.50;;;1.50;;
60426;SDS011;46274;47.168;27.604;2023-08-07T20:46:39;7.53;;;1.23;;
60426;SDS011;46274;47.168;27.604;2023-08-07T20:52:44;3.43;;;1.13;;
60426;SDS011;46274;47.168;27.604;2023-08-07T20:58:47;4.47;;;1.13;;
60426;SDS011;46274;47.168;27.604;2023-08-07T21:04:51;1.73;;;0.90;;
60426;SDS011;46274;47.168;27.604;2023-08-07T21:10:58;9.67;;;1.37;;
60426;SDS011;46274;47.168;27.604;2023-08-07T21:17:02;7.03;;;1.00;;
60426;SDS011;46274;47.168;27.604;2023-08-07T21:23:06;4.33;;;1.03;;
60426;SDS011;46274;47.168;27.604;2023-08-07T21:29:15;2.07;;;0.77;;
60426;SDS011;46274;47.168;27.604;2023-08-07T21:35:21;1.60;;;0.77;;
60426;SDS011;46274;47.168;27.604;2023-08-07T21:41:23;1.83;;;0.80;;
60426;SDS011;46274;47.168;27.604;2023-08-07T21:47:26;1.90;;;0.70;;
60426;SDS011;46274;47.168;27.604;2023-08-07T21:53:28;2.90;;;0.90;;
60426;SDS011;46274;47.168;27.604;2023-08-07T21:59:33;2.00;;;0.67;;
60426;SDS011;46274;47.168;27.604;2023-08-07T22:05:38;1.90;;;0.67;;
60426;SDS011;46274;47.168;27.604;2023-08-07T22:11:43;1.20;;;0.80;;
60426;SDS011;46274;47.168;27.604;2023-08-07T22:17:47;6.57;;;0.97;;
60426;SDS011;46274;47.168;27.604;2023-08-07T22:23:50;1.63;;;0.80;;
60426;SDS011;46274;47.168;27.604;2023-08-07T22:30:01;1.63;;;0.73;;
60426;SDS011;46274;47.168;27.604;2023-08-07T22:36:03;1.77;;;0.77;;
60426;SDS011;46274;47.168;27.604;2023-08-07T22:42:07;6.17;;;1.30;;
60426;SDS011;46274;47.168;27.604;2023-08-07T22:48:09;4.57;;;1.97;;
60426;SDS011;46274;47.168;27.604;2023-08-07T22:54:13;2.67;;;1.20;;
60426;SDS011;46274;47.168;27.604;2023-08-07T23:00:18;1.37;;;0.87;;
60426;SDS011;46274;47.168;27.604;2023-08-07T23:06:21;3.10;;;1.23;;
60426;SDS011;46274;47.168;27.604;2023-08-07T23:12:23;6.37;;;1.00;;
60426;SDS011;46274;47.168;27.604;2023-08-07T23:18:26;7.13;;;1.17;;
60426;SDS011;46274;47.168;27.604;2023-08-07T23:24:37;3.30;;;1.03;;
60426;SDS011;46274;47.168;27.604;2023-08-07T23:30:41;2.30;;;0.80;;
60426;SDS011;46274;47.168;27.604;2023-08-07T23:36:50;1.80;;;0.70;;
60426;SDS011;46274;47.168;27.604;2023-08-07T23:42:53;2.67;;;0.80;;
60426;SDS011;46274;47.168;27.604;2023-08-07T23:48:55;3.33;;;0.70;;
60426;SDS011;46274;47.168;27.604;2023-08-07T23:54:57;0.87;;;0.40;;
